createdAt,value
2023-10-22T00:00:09.700Z,100411.22
2023-10-22T00:00:23.359Z,100402.31
2023-10-22T00:00:56.941Z,100415.59
2023-10-22T00:01:30.932Z,100406.69
2023-10-22T00:01:43.970Z,100404.00
2023-10-22T00:01:57.460Z,100408.53
2023-10-22T00:02:10.479Z,100403.16
2023-10-22T00:02:23.300Z,100397.78
2023-10-22T00:02:36.000Z,100405.84
2023-10-22T00:02:49.772Z,100405.00
2023-10-22T00:03:02.846Z,100413.91
2023-10-22T00:03:15.839Z,100408.53
2023-10-22T00:03:28.726Z,100410.25
2023-10-22T00:03:41.816Z,100406.84
2023-10-22T00:03:54.613Z,100406.69
2023-10-22T00:04:07.726Z,100404.00
2023-10-22T00:04:21.013Z,100406.69
2023-10-22T00:04:34.088Z,100409.38
2023-10-22T00:04:47.843Z,100407.56
2023-10-22T00:05:00.503Z,100408.41
2023-10-22T00:05:13.197Z,100402.19
2023-10-22T00:05:25.940Z,100403.16
2023-10-22T00:05:38.557Z,100413.91
2023-10-22T00:05:51.208Z,100405.00
2023-10-22T00:06:04.229Z,100402.19
2023-10-22T00:06:16.968Z,100409.38
2023-10-22T00:06:30.603Z,100404.00
2023-10-22T00:06:43.869Z,100407.69
2023-10-22T00:06:56.513Z,100403.16
2023-10-22T00:07:09.293Z,100410.25
2023-10-22T00:07:21.949Z,100399.50
2023-10-22T00:07:35.128Z,100400.34
2023-10-22T00:07:47.714Z,100407.56
2023-10-22T00:08:00.404Z,100402.19
2023-10-22T00:08:13.116Z,100404.00
2023-10-22T00:08:26.750Z,100403.03
2023-10-22T00:08:39.394Z,100394.13
2023-10-22T00:08:52.072Z,100407.56
2023-10-22T00:09:04.815Z,100398.63
2023-10-22T00:09:18.010Z,100399.50
2023-10-22T00:09:30.677Z,100404.56
2023-10-22T00:09:43.524Z,100403.88
2023-10-22T00:09:56.240Z,100401.19
2023-10-22T00:10:09.981Z,100394.97
2023-10-22T00:10:23.696Z,100396.81
2023-10-22T00:10:36.328Z,100394.13
2023-10-22T00:10:48.962Z,100402.19
2023-10-22T00:11:01.690Z,100404.88
2023-10-22T00:11:14.342Z,100397.78
2023-10-22T00:11:26.998Z,100393.25
2023-10-22T00:11:39.675Z,100399.50
2023-10-22T00:11:52.415Z,100397.78
2023-10-22T00:12:05.743Z,100404.88
2023-10-22T00:12:18.382Z,100403.88
2023-10-22T00:12:32.241Z,100402.88
2023-10-22T00:12:44.882Z,100398.50
2023-10-22T00:12:57.851Z,100403.03
2023-10-22T00:13:10.556Z,100398.63
2023-10-22T00:13:23.224Z,100400.47
2023-10-22T00:13:35.885Z,100396.13
2023-10-22T00:13:48.538Z,100404.16
2023-10-22T00:14:01.557Z,100399.78
2023-10-22T00:14:15.178Z,100396.94
2023-10-22T00:14:27.884Z,100398.81
2023-10-22T00:14:40.579Z,100401.47
2023-10-22T00:14:53.448Z,100391.59
2023-10-22T00:15:06.980Z,100394.28
2023-10-22T00:15:19.733Z,100396.94
2023-10-22T00:15:32.375Z,100400.66
2023-10-22T00:15:45.085Z,100391.72
2023-10-22T00:15:57.883Z,100405.16
2023-10-22T00:16:10.623Z,100398.09
2023-10-22T00:16:24.355Z,100394.56
2023-10-22T00:16:38.416Z,100397.25
2023-10-22T00:16:51.163Z,100398.09
2023-10-22T00:17:04.423Z,100400.91
2023-10-22T00:17:17.179Z,100397.41
2023-10-22T00:17:29.828Z,100400.09
2023-10-22T00:17:42.963Z,100397.41
2023-10-22T00:17:57.118Z,100397.25
2023-10-22T00:18:09.892Z,100394.72
2023-10-22T00:18:22.707Z,100393.00
2023-10-22T00:18:35.560Z,100393.00
2023-10-22T00:18:48.575Z,100395.69
2023-10-22T00:19:01.288Z,100391.31
2023-10-22T00:19:13.937Z,100395.84
2023-10-22T00:19:26.756Z,100399.38
2023-10-22T00:19:39.369Z,100393.19
2023-10-22T00:19:52.064Z,100401.06
2023-10-22T00:20:06.563Z,100389.34
2023-10-22T00:20:20.652Z,100392.03
2023-10-22T00:20:34.369Z,100395.69
2023-10-22T00:20:47.142Z,100394.72
2023-10-22T00:20:59.847Z,100390.31
2023-10-22T00:21:12.621Z,100396.56
2023-10-22T00:21:25.314Z,100393.00
2023-10-22T00:21:37.947Z,100390.31
2023-10-22T00:21:50.976Z,100393.00
2023-10-22T00:22:03.748Z,100393.00
2023-10-22T00:22:18.204Z,100388.66
2023-10-22T00:22:31.060Z,100392.16
2023-10-22T00:22:43.685Z,100391.31
2023-10-22T00:22:56.284Z,100393.00
2023-10-22T00:23:09.128Z,100388.50
2023-10-22T00:23:21.765Z,100384.97
2023-10-22T00:23:34.488Z,100387.63
2023-10-22T00:23:47.213Z,100388.66
2023-10-22T00:23:59.987Z,100394.00
2023-10-22T00:24:12.724Z,100391.31
2023-10-22T00:24:26.319Z,100390.31
2023-10-22T00:24:39.206Z,100383.97
2023-10-22T00:24:51.899Z,100391.03
2023-10-22T00:25:05.428Z,100389.34
2023-10-22T00:25:18.360Z,100387.50
2023-10-22T00:25:30.993Z,100389.34
2023-10-22T00:25:44.062Z,100388.50
2023-10-22T00:25:56.691Z,100391.31
2023-10-22T00:26:15.217Z,100382.44
2023-10-22T00:26:27.891Z,100391.19
2023-10-22T00:26:41.272Z,100384.25
2023-10-22T00:26:54.133Z,100389.63
2023-10-22T00:27:06.834Z,100385.13
2023-10-22T00:27:19.525Z,100384.25
2023-10-22T00:27:33.788Z,100386.94
2023-10-22T00:27:46.588Z,100384.25
2023-10-22T00:27:59.213Z,100385.13
2023-10-22T00:28:12.423Z,100391.31
2023-10-22T00:28:25.018Z,100386.81
2023-10-22T00:28:38.629Z,100380.59
2023-10-22T00:28:51.232Z,100382.28
2023-10-22T00:29:04.039Z,100386.81
2023-10-22T00:29:16.734Z,100381.44
2023-10-22T00:29:29.333Z,100385.97
2023-10-22T00:29:42.331Z,100385.97
2023-10-22T00:29:55.050Z,100389.47
2023-10-22T00:30:08.965Z,100394.84
2023-10-22T00:30:21.663Z,100385.97
2023-10-22T00:30:35.456Z,100389.47
2023-10-22T00:30:49.743Z,100385.97
2023-10-22T00:31:02.361Z,100380.59
2023-10-22T00:31:15.014Z,100395.69
2023-10-22T00:31:27.800Z,100391.31
2023-10-22T00:31:42.110Z,100389.47
2023-10-22T00:31:54.751Z,100391.31
2023-10-22T00:32:07.511Z,100389.63
2023-10-22T00:32:21.170Z,100394.16
2023-10-22T00:32:34.029Z,100399.38
2023-10-22T00:32:47.865Z,100395.00
2023-10-22T00:33:00.724Z,100394.16
2023-10-22T00:33:13.557Z,100395.16
2023-10-22T00:33:26.414Z,100401.38
2023-10-22T00:33:39.570Z,100396.97
2023-10-22T00:33:52.483Z,100402.34
2023-10-22T00:34:05.594Z,100396.97
2023-10-22T00:34:18.490Z,100403.22
2023-10-22T00:34:31.378Z,100391.59
2023-10-22T00:34:46.007Z,100400.53
2023-10-22T00:34:58.631Z,100397.16
2023-10-22T00:35:11.286Z,100398.81
2023-10-22T00:35:25.831Z,100389.94
2023-10-22T00:35:40.283Z,100389.94
2023-10-22T00:35:56.883Z,100407.72
2023-10-22T00:36:09.610Z,100401.50
2023-10-22T00:36:25.496Z,100402.50
2023-10-22T00:36:38.166Z,100400.66
2023-10-22T00:36:51.214Z,100396.97
2023-10-22T00:37:05.210Z,100406.88
2023-10-22T00:37:17.936Z,100398.81
2023-10-22T00:37:30.869Z,100403.34
2023-10-22T00:37:43.554Z,100405.03
2023-10-22T00:37:56.191Z,100403.22
2023-10-22T00:38:08.856Z,100401.50
2023-10-22T00:38:21.491Z,100403.22
2023-10-22T00:38:34.232Z,100402.34
2023-10-22T00:38:46.961Z,100396.13
2023-10-22T00:38:59.669Z,100402.34
2023-10-22T00:39:12.362Z,100402.34
2023-10-22T00:39:26.130Z,100411.25
2023-10-22T00:39:38.752Z,100401.38
2023-10-22T00:39:51.837Z,100404.06
2023-10-22T00:40:05.369Z,100404.06
2023-10-22T00:40:18.252Z,100396.00
2023-10-22T00:40:30.866Z,100405.91
2023-10-22T00:40:43.569Z,100407.56
2023-10-22T00:40:56.226Z,100404.06
2023-10-22T00:41:08.878Z,100410.25
2023-10-22T00:41:21.588Z,100401.38
2023-10-22T00:41:35.690Z,100407.56
2023-10-22T00:41:48.584Z,100404.88
2023-10-22T00:42:01.463Z,100404.88
2023-10-22T00:42:14.208Z,100390.63
2023-10-22T00:42:26.887Z,100408.41
2023-10-22T00:42:39.516Z,100404.88
2023-10-22T00:42:52.232Z,100405.72
2023-10-22T00:43:07.533Z,100399.53
2023-10-22T00:43:20.299Z,100399.53
2023-10-22T00:43:32.924Z,100405.72
2023-10-22T00:43:45.622Z,100400.34
2023-10-22T00:43:58.304Z,100405.72
2023-10-22T00:44:10.949Z,100395.00
2023-10-22T00:44:24.453Z,100395.00
2023-10-22T00:44:37.563Z,100400.34
2023-10-22T00:44:51.435Z,100404.75
2023-10-22T00:45:05.126Z,100403.91
2023-10-22T00:45:17.889Z,100401.22
2023-10-22T00:45:36.580Z,100401.22
2023-10-22T00:45:49.574Z,100400.22
2023-10-22T00:46:03.935Z,100402.06
2023-10-22T00:46:19.379Z,100406.59
2023-10-22T00:46:32.301Z,100406.59
2023-10-22T00:46:47.204Z,100402.06
2023-10-22T00:47:01.113Z,100402.06
2023-10-22T00:47:17.089Z,100414.47
2023-10-22T00:47:30.553Z,100407.44
2023-10-22T00:47:43.397Z,100408.28
2023-10-22T00:47:56.169Z,100407.44
2023-10-22T00:48:10.156Z,100409.13
2023-10-22T00:48:23.401Z,100412.81
2023-10-22T00:48:36.522Z,100406.59
2023-10-22T00:48:49.844Z,100402.06
2023-10-22T00:49:03.155Z,100411.97
2023-10-22T00:49:17.931Z,100399.38
2023-10-22T00:49:30.953Z,100406.59
2023-10-22T00:49:46.912Z,100407.44
2023-10-22T00:50:00.641Z,100403.75
2023-10-22T00:50:13.871Z,100403.75
2023-10-22T00:50:26.542Z,100407.44
2023-10-22T00:50:40.565Z,100398.38
2023-10-22T00:50:53.883Z,100399.25
2023-10-22T00:51:07.617Z,100401.06
2023-10-22T00:51:20.909Z,100399.25
2023-10-22T00:51:34.145Z,100409.13
2023-10-22T00:51:48.154Z,100399.25
2023-10-22T00:52:01.127Z,100396.56
2023-10-22T00:52:14.856Z,100398.38
2023-10-22T00:52:29.218Z,100395.56
2023-10-22T00:52:42.624Z,100397.41
2023-10-22T00:52:56.288Z,100401.75
2023-10-22T00:53:10.314Z,100396.41
2023-10-22T00:53:28.490Z,100402.63
2023-10-22T00:53:42.845Z,100396.41
2023-10-22T00:53:55.889Z,100395.41
2023-10-22T00:54:09.155Z,100398.94
2023-10-22T00:54:22.395Z,100395.41
2023-10-22T00:54:35.832Z,100397.09
2023-10-22T00:54:48.875Z,100395.41
2023-10-22T00:55:03.863Z,100388.19
2023-10-22T00:55:16.600Z,100395.41
2023-10-22T00:55:29.313Z,100393.56
2023-10-22T00:55:44.293Z,100395.41
2023-10-22T00:55:57.225Z,100398.09
2023-10-22T00:56:11.051Z,100398.94
2023-10-22T00:56:24.165Z,100392.72
2023-10-22T00:56:37.795Z,100398.09
2023-10-22T00:56:53.133Z,100392.72
2023-10-22T00:57:05.915Z,100398.09
2023-10-22T00:57:20.321Z,100393.56
2023-10-22T00:57:33.965Z,100391.72
2023-10-22T00:57:46.923Z,100389.03
2023-10-22T00:57:59.582Z,100390.75
2023-10-22T00:58:12.779Z,100394.28
2023-10-22T00:58:26.325Z,100395.94
2023-10-22T00:58:39.275Z,100396.13
2023-10-22T00:58:51.957Z,100390.75
2023-10-22T00:59:05.792Z,100396.94
2023-10-22T00:59:19.388Z,100386.34
2023-10-22T00:59:32.768Z,100391.72
2023-10-22T00:59:45.495Z,100396.13
2023-10-22T00:59:58.195Z,100389.03
2023-10-22T01:00:11.987Z,100397.97
2023-10-22T01:00:26.736Z,100389.91
2023-10-22T01:00:39.700Z,100394.41
2023-10-22T01:00:52.513Z,100394.41
2023-10-22T01:01:09.460Z,100391.72
2023-10-22T01:01:24.145Z,100396.13
2023-10-22T01:01:36.822Z,100398.81
2023-10-22T01:01:52.065Z,100397.97
2023-10-22T01:02:04.798Z,100391.72
2023-10-22T01:02:17.754Z,100389.91
2023-10-22T01:02:30.471Z,100398.81
2023-10-22T01:02:43.379Z,100395.28
2023-10-22T01:02:56.167Z,100396.13
2023-10-22T01:03:10.041Z,100401.47
2023-10-22T01:03:23.892Z,100392.59
2023-10-22T01:03:36.871Z,100395.28
2023-10-22T01:03:49.673Z,100398.81
2023-10-22T01:04:02.558Z,100396.81
2023-10-22T01:04:15.460Z,100394.13
2023-10-22T01:04:28.254Z,100394.28
2023-10-22T01:04:41.187Z,100402.31
2023-10-22T01:04:54.140Z,100397.78
2023-10-22T01:05:09.618Z,100400.47
2023-10-22T01:05:23.284Z,100395.09
2023-10-22T01:05:37.567Z,100404.00
2023-10-22T01:05:50.256Z,100398.81
2023-10-22T01:06:03.520Z,100403.16
2023-10-22T01:06:16.327Z,100396.94
2023-10-22T01:06:29.119Z,100401.47
2023-10-22T01:06:41.812Z,100402.47
2023-10-22T01:06:54.502Z,100395.28
2023-10-22T01:07:08.255Z,100390.88
2023-10-22T01:07:21.324Z,100395.28
2023-10-22T01:07:34.666Z,100400.66
2023-10-22T01:07:48.379Z,100397.09
2023-10-22T01:08:00.987Z,100394.56
2023-10-22T01:08:13.672Z,100397.09
2023-10-22T01:08:26.416Z,100397.25
2023-10-22T01:08:40.798Z,100400.78
2023-10-22T01:08:55.228Z,100404.31
2023-10-22T01:09:11.335Z,100408.84
2023-10-22T01:09:24.182Z,100402.63
2023-10-22T01:09:37.194Z,100399.78
2023-10-22T01:09:49.842Z,100401.47
2023-10-22T01:10:03.936Z,100401.47
2023-10-22T01:10:16.600Z,100397.97
2023-10-22T01:10:29.277Z,100402.47
2023-10-22T01:10:42.184Z,100402.47
2023-10-22T01:11:04.970Z,100407.84
2023-10-22T01:11:18.895Z,100398.94
2023-10-22T01:11:31.482Z,100403.47
2023-10-22T01:11:59.834Z,100396.41
2023-10-22T01:12:12.739Z,100402.63
2023-10-22T01:12:34.816Z,100399.78
2023-10-22T01:12:47.462Z,100406.16
2023-10-22T01:13:00.308Z,100392.72
2023-10-22T01:13:13.094Z,100396.25
2023-10-22T01:13:26.897Z,100397.25
2023-10-22T01:13:41.712Z,100392.72
2023-10-22T01:13:54.590Z,100400.78
2023-10-22T01:14:07.836Z,100399.06
2023-10-22T01:14:20.475Z,100401.75
2023-10-22T01:14:33.523Z,100408.00
2023-10-22T01:14:46.875Z,100400.91
2023-10-22T01:14:59.503Z,100396.56
2023-10-22T01:15:13.186Z,100400.09
2023-10-22T01:15:25.943Z,100400.91
2023-10-22T01:15:38.584Z,100400.91
2023-10-22T01:15:51.263Z,100397.25
2023-10-22T01:16:04.702Z,100399.06
2023-10-22T01:16:17.586Z,100397.41
2023-10-22T01:16:30.540Z,100401.75
2023-10-22T01:16:43.364Z,100394.72
2023-10-22T01:16:57.776Z,100394.72
2023-10-22T01:17:11.384Z,100396.56
2023-10-22T01:17:24.057Z,100399.25
2023-10-22T01:17:37.078Z,100396.56
2023-10-22T01:17:49.983Z,100400.09
2023-10-22T01:18:04.036Z,100397.25
2023-10-22T01:18:16.772Z,100395.56
2023-10-22T01:18:29.802Z,100395.56
2023-10-22T01:18:42.786Z,100398.25
2023-10-22T01:18:56.439Z,100401.75
2023-10-22T01:19:09.361Z,100393.88
2023-10-22T01:19:22.233Z,100394.72
2023-10-22T01:19:34.948Z,100393.88
2023-10-22T01:19:47.587Z,100396.56
2023-10-22T01:20:00.226Z,100394.72
2023-10-22T01:20:14.570Z,100387.63
2023-10-22T01:20:27.277Z,100389.34
2023-10-22T01:20:39.923Z,100393.88
2023-10-22T01:20:52.809Z,100396.56
2023-10-22T01:21:06.618Z,100389.34
2023-10-22T01:21:19.416Z,100389.47
2023-10-22T01:21:32.647Z,100389.63
2023-10-22T01:21:45.407Z,100390.50
2023-10-22T01:21:58.874Z,100390.31
2023-10-22T01:22:11.562Z,100387.63
2023-10-22T01:22:24.373Z,100390.31
2023-10-22T01:22:37.059Z,100388.50
2023-10-22T01:22:49.700Z,100387.63
2023-10-22T01:23:03.346Z,100390.31
2023-10-22T01:23:17.415Z,100390.31
2023-10-22T01:23:30.014Z,100388.66
2023-10-22T01:23:42.746Z,100388.66
2023-10-22T01:23:55.431Z,100388.66
2023-10-22T01:24:09.435Z,100391.31
2023-10-22T01:24:22.110Z,100391.31
2023-10-22T01:24:34.780Z,100389.47
2023-10-22T01:24:48.532Z,100388.66
2023-10-22T01:25:01.176Z,100391.31
2023-10-22T01:25:13.838Z,100389.63
2023-10-22T01:25:26.517Z,100390.50
2023-10-22T01:25:39.425Z,100388.66
2023-10-22T01:25:52.451Z,100390.31
2023-10-22T01:26:07.662Z,100386.81
2023-10-22T01:26:21.468Z,100393.00
2023-10-22T01:26:40.556Z,100391.31
2023-10-22T01:26:53.290Z,100391.31
2023-10-22T01:27:05.960Z,100387.81
2023-10-22T01:27:18.764Z,100389.47
2023-10-22T01:27:33.403Z,100387.81
2023-10-22T01:27:46.051Z,100388.66
2023-10-22T01:27:59.741Z,100388.66
2023-10-22T01:28:12.377Z,100391.31
2023-10-22T01:28:26.034Z,100383.28
2023-10-22T01:28:38.715Z,100396.69
2023-10-22T01:28:51.336Z,100396.56
2023-10-22T01:29:04.024Z,100385.97
2023-10-22T01:29:16.705Z,100394.84
2023-10-22T01:29:29.640Z,100392.16
2023-10-22T01:29:42.447Z,100390.31
2023-10-22T01:29:55.181Z,100396.56
2023-10-22T01:30:10.933Z,100398.38
2023-10-22T01:30:23.580Z,100398.38
2023-10-22T01:30:39.044Z,100395.56
2023-10-22T01:30:52.070Z,100397.41
2023-10-22T01:31:05.996Z,100397.41
2023-10-22T01:31:22.054Z,100400.91
2023-10-22T01:31:34.844Z,100400.09
2023-10-22T01:31:49.075Z,100401.75
2023-10-22T01:32:02.070Z,100402.75
2023-10-22T01:32:15.018Z,100406.44
2023-10-22T01:32:31.507Z,100398.38
2023-10-22T01:32:44.275Z,100399.38
2023-10-22T01:32:57.289Z,100401.22
2023-10-22T01:33:10.248Z,100406.59
2023-10-22T01:33:23.347Z,100402.06
2023-10-22T01:33:37.195Z,100401.22
2023-10-22T01:33:50.182Z,100403.03
2023-10-22T01:34:02.991Z,100411.97
2023-10-22T01:34:15.840Z,100404.06
2023-10-22T01:34:28.510Z,100405.03
2023-10-22T01:34:41.153Z,100404.19
2023-10-22T01:34:53.970Z,100397.97
2023-10-22T01:35:07.383Z,100404.34
2023-10-22T01:35:20.106Z,100402.66
2023-10-22T01:35:33.296Z,100402.66
2023-10-22T01:35:46.985Z,100404.50
2023-10-22T01:35:59.671Z,100412.69
2023-10-22T01:36:12.439Z,100409.28
2023-10-22T01:36:25.361Z,100410.31
2023-10-22T01:36:38.072Z,100411.97
2023-10-22T01:36:50.708Z,100414.66
2023-10-22T01:37:03.696Z,100404.50
2023-10-22T01:37:16.699Z,100407.63
2023-10-22T01:37:29.326Z,100408.47
2023-10-22T01:37:42.931Z,100413.00
2023-10-22T01:37:55.623Z,100417.34
2023-10-22T01:38:08.293Z,100409.28
2023-10-22T01:38:22.278Z,100409.44
2023-10-22T01:38:34.971Z,100415.66
2023-10-22T01:38:47.867Z,100410.44
2023-10-22T01:39:00.637Z,100415.66
2023-10-22T01:39:16.528Z,100413.13
2023-10-22T01:39:29.449Z,100416.66
2023-10-22T01:39:42.185Z,100415.66
2023-10-22T01:39:55.662Z,100415.66
2023-10-22T01:40:09.602Z,100413.00
2023-10-22T01:40:22.385Z,100421.03
2023-10-22T01:40:35.056Z,100415.66
2023-10-22T01:40:47.711Z,100418.19
2023-10-22T01:41:05.125Z,100420.03
2023-10-22T01:41:19.250Z,100411.41
2023-10-22T01:41:32.011Z,100418.44
2023-10-22T01:41:44.747Z,100422.84
2023-10-22T01:41:57.504Z,100421.28
2023-10-22T01:42:10.191Z,100411.69
2023-10-22T01:42:22.947Z,100425.81
2023-10-22T01:42:35.583Z,100419.75
2023-10-22T01:42:48.262Z,100416.06
2023-10-22T01:43:00.942Z,100421.56
2023-10-22T01:43:13.556Z,100418.63
2023-10-22T01:43:27.185Z,100420.47
2023-10-22T01:43:39.940Z,100421.44
2023-10-22T01:43:53.786Z,100413.38
2023-10-22T01:44:06.903Z,100418.75
2023-10-22T01:44:20.045Z,100419.31
2023-10-22T01:44:32.843Z,100420.16
2023-10-22T01:44:45.591Z,100417.47
2023-10-22T01:44:58.329Z,100421.00
2023-10-22T01:45:12.641Z,100421.84
2023-10-22T01:45:25.377Z,100418.16
2023-10-22T01:45:37.982Z,100418.16
2023-10-22T01:45:50.609Z,100415.94
2023-10-22T01:46:03.269Z,100421.44
2023-10-22T01:46:16.102Z,100415.22
2023-10-22T01:46:28.803Z,100424.25
2023-10-22T01:46:41.704Z,100418.03
2023-10-22T01:46:55.478Z,100413.69
2023-10-22T01:47:08.279Z,100420.72
2023-10-22T01:47:20.975Z,100417.22
2023-10-22T01:47:33.690Z,100419.06
2023-10-22T01:47:46.442Z,100419.06
2023-10-22T01:47:59.201Z,100419.06
2023-10-22T01:48:12.114Z,100424.41
2023-10-22T01:48:24.915Z,100419.06
2023-10-22T01:48:39.442Z,100426.09
2023-10-22T01:48:53.176Z,100424.41
2023-10-22T01:49:06.211Z,100421.75
2023-10-22T01:49:19.246Z,100419.91
2023-10-22T01:49:31.977Z,100421.56
2023-10-22T01:49:44.686Z,100418.88
2023-10-22T01:49:57.541Z,100418.75
2023-10-22T01:50:11.209Z,100417.06
2023-10-22T01:50:24.783Z,100418.88
2023-10-22T01:50:37.472Z,100417.91
2023-10-22T01:50:51.151Z,100421.56
2023-10-22T01:51:04.031Z,100422.44
2023-10-22T01:51:16.812Z,100418.88
2023-10-22T01:51:29.805Z,100418.75
2023-10-22T01:51:42.532Z,100424.13
2023-10-22T01:51:55.209Z,100425.81
2023-10-22T01:52:07.903Z,100417.78
2023-10-22T01:52:20.613Z,100420.47
2023-10-22T01:52:34.737Z,100418.63
2023-10-22T01:52:47.360Z,100422.69
2023-10-22T01:53:00.045Z,100420.84
2023-10-22T01:53:13.016Z,100420.84
2023-10-22T01:53:27.023Z,100416.47
2023-10-22T01:53:39.715Z,100417.47
2023-10-22T01:53:52.443Z,100421.13
2023-10-22T01:54:07.783Z,100416.78
2023-10-22T01:54:20.452Z,100422.13
2023-10-22T01:54:34.112Z,100424.81
2023-10-22T01:54:46.765Z,100425.81
2023-10-22T01:54:59.420Z,100418.75
2023-10-22T01:55:12.081Z,100422.44
2023-10-22T01:55:24.698Z,100425.13
2023-10-22T01:55:37.780Z,100421.56
2023-10-22T01:55:50.545Z,100426.94
2023-10-22T01:56:04.780Z,100423.56
2023-10-22T01:56:17.459Z,100423.56
2023-10-22T01:56:30.114Z,100423.56
2023-10-22T01:56:45.344Z,100418.19
2023-10-22T01:56:58.062Z,100423.56
2023-10-22T01:57:11.092Z,100426.22
2023-10-22T01:57:24.762Z,100422.72
2023-10-22T01:57:37.533Z,100418.19
2023-10-22T01:57:50.165Z,100419.06
2023-10-22T01:58:02.838Z,100417.34
2023-10-22T01:58:15.823Z,100423.56
2023-10-22T01:58:29.537Z,100423.56
2023-10-22T01:58:43.462Z,100427.09
2023-10-22T01:58:56.122Z,100423.41
2023-10-22T01:59:08.842Z,100420.72
2023-10-22T01:59:21.508Z,100419.06
2023-10-22T01:59:34.186Z,100423.56
2023-10-22T01:59:46.872Z,100425.53
2023-10-22T01:59:59.545Z,100423.84
2023-10-22T02:00:13.265Z,100429.09
2023-10-22T02:00:27.022Z,100430.06
2023-10-22T02:00:39.726Z,100423.84
2023-10-22T02:01:02.145Z,100429.34
2023-10-22T02:01:15.194Z,100427.53
2023-10-22T02:01:28.380Z,100423.16
2023-10-22T02:01:41.068Z,100426.69
2023-10-22T02:01:53.777Z,100413.25
2023-10-22T02:02:06.424Z,100421.31
2023-10-22T02:02:20.293Z,100421.31
2023-10-22T02:02:34.096Z,100420.47
2023-10-22T02:02:46.963Z,100417.78
2023-10-22T02:03:00.228Z,100426.69
2023-10-22T02:03:13.100Z,100424.00
2023-10-22T02:03:25.831Z,100421.31
2023-10-22T02:03:38.790Z,100426.69
2023-10-22T02:03:51.585Z,100420.34
2023-10-22T02:04:05.532Z,100422.19
2023-10-22T02:04:18.168Z,100426.69
2023-10-22T02:04:31.630Z,100418.63
2023-10-22T02:04:44.287Z,100419.59
2023-10-22T02:04:56.936Z,100422.28
2023-10-22T02:05:09.654Z,100423.84
2023-10-22T02:05:22.622Z,100416.91
2023-10-22T02:05:35.854Z,100418.34
2023-10-22T02:05:48.724Z,100418.75
2023-10-22T02:06:02.628Z,100418.34
2023-10-22T02:06:16.259Z,100421.31
2023-10-22T02:06:29.183Z,100420.34
2023-10-22T02:06:42.641Z,100418.50
2023-10-22T02:06:55.314Z,100421.31
2023-10-22T02:07:08.241Z,100422.28
2023-10-22T02:07:21.006Z,100422.19
2023-10-22T02:07:33.742Z,100419.59
2023-10-22T02:07:46.367Z,100422.28
2023-10-22T02:08:00.146Z,100423.16
2023-10-22T02:08:12.871Z,100421.31
2023-10-22T02:08:27.137Z,100421.44
2023-10-22T02:08:40.144Z,100420.34
2023-10-22T02:08:52.919Z,100424.97
2023-10-22T02:09:05.611Z,100422.19
2023-10-22T02:09:18.657Z,100414.22
2023-10-22T02:09:32.287Z,100421.03
2023-10-22T02:09:45.073Z,100420.03
2023-10-22T02:09:58.137Z,100426.69
2023-10-22T02:10:11.507Z,100415.09
2023-10-22T02:10:24.320Z,100415.19
2023-10-22T02:10:36.991Z,100427.53
2023-10-22T02:10:49.680Z,100422.28
2023-10-22T02:11:02.375Z,100421.44
2023-10-22T02:11:15.779Z,100431.31
2023-10-22T02:11:29.798Z,100419.59
2023-10-22T02:11:42.656Z,100422.28
2023-10-22T02:11:55.485Z,100422.28
2023-10-22T02:12:09.957Z,100419.59
2023-10-22T02:12:27.782Z,100429.34
2023-10-22T02:12:40.556Z,100419.59
2023-10-22T02:12:54.289Z,100425.94
2023-10-22T02:13:07.005Z,100424.97
2023-10-22T02:13:20.269Z,100416.06
2023-10-22T02:13:33.086Z,100427.78
2023-10-22T02:13:46.006Z,100423.44
2023-10-22T02:13:59.711Z,100425.22
2023-10-22T02:14:12.356Z,100426.09
2023-10-22T02:14:26.027Z,100420.75
2023-10-22T02:14:38.941Z,100419.88
2023-10-22T02:14:51.869Z,100422.56
2023-10-22T02:15:06.509Z,100425.22
2023-10-22T02:15:19.355Z,100419.88
2023-10-22T02:15:32.191Z,100419.03
2023-10-22T02:15:44.945Z,100427.91
2023-10-22T02:15:57.708Z,100419.88
2023-10-22T02:16:10.358Z,100425.41
2023-10-22T02:16:23.461Z,100416.34
2023-10-22T02:16:36.150Z,100422.56
2023-10-22T02:16:49.938Z,100426.09
2023-10-22T02:17:02.763Z,100423.25
2023-10-22T02:17:15.436Z,100424.97
2023-10-22T02:17:28.411Z,100425.84
2023-10-22T02:17:41.239Z,100416.81
2023-10-22T02:17:54.213Z,100423.00
2023-10-22T02:18:06.993Z,100423.00
2023-10-22T02:18:19.830Z,100426.69
2023-10-22T02:18:32.609Z,100427.53
2023-10-22T02:18:46.415Z,100426.69
2023-10-22T02:18:59.134Z,100424.88
2023-10-22T02:19:11.810Z,100422.28
2023-10-22T02:19:24.535Z,100424.13
2023-10-22T02:19:37.227Z,100419.59
2023-10-22T02:19:49.857Z,100415.09
2023-10-22T02:20:02.669Z,100418.75
2023-10-22T02:20:15.477Z,100415.09
2023-10-22T02:20:29.150Z,100419.59
2023-10-22T02:20:41.924Z,100416.91
2023-10-22T02:20:56.250Z,100421.44
2023-10-22T02:21:09.950Z,100424.97
2023-10-22T02:21:27.281Z,100416.91
2023-10-22T02:21:39.949Z,100418.75
2023-10-22T02:21:54.273Z,100425.94
2023-10-22T02:22:06.923Z,100417.88
2023-10-22T02:22:19.633Z,100416.22
2023-10-22T02:22:32.517Z,100416.22
2023-10-22T02:22:46.123Z,100417.06
2023-10-22T02:23:00.297Z,100421.56
2023-10-22T02:23:12.984Z,100421.56
2023-10-22T02:23:27.975Z,100419.72
2023-10-22T02:23:41.227Z,100424.13
2023-10-22T02:23:54.226Z,100423.25
2023-10-22T02:24:07.849Z,100417.06
2023-10-22T02:24:20.789Z,100415.19
2023-10-22T02:24:33.531Z,100422.28
2023-10-22T02:24:46.238Z,100421.44
2023-10-22T02:24:59.904Z,100422.28
2023-10-22T02:25:12.942Z,100424.97
2023-10-22T02:25:25.684Z,100422.28
2023-10-22T02:25:38.347Z,100422.28
2023-10-22T02:25:51.317Z,100419.59
2023-10-22T02:26:05.776Z,100424.97
2023-10-22T02:26:18.502Z,100416.91
2023-10-22T02:26:32.151Z,100419.59
2023-10-22T02:26:44.872Z,100419.59
2023-10-22T02:26:57.567Z,100420.47
2023-10-22T02:27:10.400Z,100418.75
2023-10-22T02:27:23.083Z,100417.66
2023-10-22T02:27:36.446Z,100417.88
2023-10-22T02:27:49.091Z,100417.88
2023-10-22T02:28:01.769Z,100420.75
2023-10-22T02:28:14.766Z,100420.75
2023-10-22T02:28:28.426Z,100412.00
2023-10-22T02:28:41.383Z,100416.47
2023-10-22T02:28:54.061Z,100418.31
2023-10-22T02:29:07.017Z,100413.13
2023-10-22T02:29:19.626Z,100418.50
2023-10-22T02:29:32.588Z,100415.81
2023-10-22T02:29:45.284Z,100412.25
2023-10-22T02:29:58.195Z,100414.94
2023-10-22T02:30:11.553Z,100416.78
2023-10-22T02:30:25.330Z,100416.78
2023-10-22T02:30:38.240Z,100418.50
2023-10-22T02:30:51.984Z,100419.47
2023-10-22T02:31:05.817Z,100414.09
2023-10-22T02:31:21.905Z,100414.09
2023-10-22T02:31:34.719Z,100420.47
2023-10-22T02:31:47.379Z,100407.91
2023-10-22T02:31:59.995Z,100414.25
2023-10-22T02:32:12.685Z,100411.41